createdAt,value
2022-09-28T06:19:56.490Z,3.20
2022-09-28T06:22:34.377Z,3.95
2022-09-28T06:25:11.295Z,2.58
2022-09-28T06:27:44.794Z,4.87
2022-09-28T06:30:17.804Z,2.83
2022-09-28T06:32:52.294Z,5.92
2022-09-28T06:35:26.256Z,3.62
2022-09-28T06:37:59.918Z,3.12
2022-09-28T06:40:33.187Z,2.72
2022-09-28T06:43:10.643Z,3.90
2022-09-28T06:46:05.074Z,2.43
2022-09-28T06:48:50.085Z,3.75
2022-09-28T06:51:25.993Z,2.33
2022-09-28T06:54:06.500Z,2.40
2022-09-28T06:56:43.955Z,3.30
2022-09-28T06:59:17.243Z,2.62
2022-09-28T07:01:51.097Z,1.80
2022-09-28T07:04:28.729Z,5.08
2022-09-28T07:07:19.387Z,2.45
2022-09-28T07:09:56.777Z,2.58
2022-09-28T07:12:49.495Z,3.62
2022-09-28T07:15:30.327Z,2.62
2022-09-28T07:18:05.473Z,2.90
2022-09-28T07:20:51.330Z,2.35
2022-09-28T07:23:18.905Z,2.80
2022-09-28T07:25:50.352Z,2.15
2022-09-28T07:28:38.544Z,2.33
2022-09-28T07:31:22.336Z,2.12
2022-09-28T07:33:56.899Z,3.98
2022-09-28T07:36:39.288Z,3.50
2022-09-28T07:39:12.568Z,4.25
2022-09-28T07:41:45.780Z,2.80
2022-09-28T07:44:22.847Z,5.30
2022-09-28T07:46:57.785Z,3.77
2022-09-28T07:52:26.346Z,3.35
2022-09-28T07:55:19.237Z,3.62
2022-09-28T07:58:03.113Z,1.87
2022-09-28T08:00:38.539Z,1.95
2022-09-28T08:03:11.477Z,3.95
2022-09-28T08:05:46.281Z,2.58
2022-09-28T08:08:20.463Z,3.42
2022-09-28T08:13:31.903Z,2.00
2022-09-28T08:16:16.029Z,2.02
2022-09-28T08:18:59.570Z,2.95
2022-09-28T08:21:47.513Z,3.17
2022-09-28T08:24:21.063Z,2.33
2022-09-28T08:26:55.760Z,3.02
2022-09-28T08:29:32.095Z,4.67
2022-09-28T08:32:10.650Z,3.02
2022-09-28T08:34:55.631Z,2.60
2022-09-28T08:37:39.215Z,4.62
2022-09-28T08:40:31.335Z,3.47
2022-09-28T08:43:08.605Z,3.52
2022-09-28T08:45:55.544Z,4.28
2022-09-28T08:48:56.368Z,3.52
2022-09-28T08:51:27.543Z,4.28
2022-09-28T08:54:23.654Z,2.05
2022-09-28T08:57:04.906Z,1.80
2022-09-28T09:02:26.234Z,3.42
2022-09-28T09:05:06.448Z,2.87
2022-09-28T09:10:51.473Z,3.85
2022-09-28T09:13:51.876Z,2.55
2022-09-28T09:16:33.288Z,3.58
2022-09-28T09:19:13.241Z,3.92
2022-09-28T09:21:52.958Z,3.98
2022-09-28T09:24:29.196Z,3.37
2022-09-28T09:27:11.787Z,2.12
2022-09-28T09:29:57.446Z,2.75
2022-09-28T09:32:40.584Z,2.20
2022-09-28T09:35:56.420Z,5.10
2022-09-28T09:38:45.403Z,2.12
2022-09-28T09:41:47.743Z,3.05
2022-09-28T09:44:54.319Z,4.33
2022-09-28T09:50:15.612Z,3.00
2022-09-28T09:52:54.634Z,2.22
2022-09-28T09:55:36.022Z,4.10
2022-09-28T09:58:31.063Z,2.55
2022-09-28T10:01:17.270Z,2.77
2022-09-28T10:04:02.342Z,2.47
2022-09-28T10:06:38.595Z,2.87
2022-09-28T10:09:17.162Z,2.40
2022-09-28T10:11:52.194Z,2.23
2022-09-28T10:14:27.217Z,2.42
2022-09-28T10:17:08.364Z,2.42
2022-09-28T10:19:59.041Z,3.08
2022-09-28T10:22:51.301Z,3.77
2022-09-28T10:25:24.723Z,5.33
2022-09-28T10:27:59.584Z,3.10
2022-09-28T10:30:35.315Z,3.35
2022-09-28T10:33:11.399Z,2.95
2022-09-28T10:35:46.834Z,4.47
2022-09-28T10:38:22.437Z,4.53
2022-09-28T10:40:59.366Z,2.42
2022-09-28T10:43:58.184Z,3.15
2022-09-28T10:46:31.279Z,3.42
2022-09-28T10:49:07.006Z,3.33
2022-09-28T10:51:45.175Z,3.08
2022-09-28T10:54:21.974Z,5.67
2022-09-28T10:56:57.625Z,3.55
2022-09-28T10:59:43.039Z,4.72
2022-09-28T11:02:33.505Z,6.00
2022-09-28T11:05:08.612Z,3.27
2022-09-28T11:07:49.434Z,4.60
2022-09-28T11:10:26.344Z,5.28
2022-09-28T11:13:13.278Z,5.17
2022-09-28T11:15:53.440Z,4.72
2022-09-28T11:18:32.558Z,5.90
2022-09-28T11:21:17.490Z,6.08
2022-09-28T11:24:09.650Z,5.25
2022-09-28T11:26:46.953Z,4.97
2022-09-28T11:29:36.131Z,4.12
2022-09-28T11:32:29.898Z,4.55
2022-09-28T11:35:22.822Z,5.05
2022-09-28T11:38:31.426Z,5.08
2022-09-28T11:41:21.256Z,4.87
2022-09-28T11:44:34.463Z,5.65
2022-09-28T11:47:22.418Z,5.35
2022-09-28T11:49:59.109Z,6.33
2022-09-28T11:52:35.577Z,5.28
2022-09-28T11:55:13.379Z,3.67
2022-09-28T11:57:52.290Z,5.53
2022-09-28T12:00:25.864Z,4.50
2022-09-28T12:05:47.716Z,4.25
2022-09-28T12:08:27.533Z,5.40
2022-09-28T12:11:15.645Z,7.03
2022-09-28T12:14:09.040Z,6.62
2022-09-28T12:17:04.678Z,6.12
2022-09-28T12:19:22.658Z,4.35
2022-09-28T12:21:58.771Z,3.22
2022-09-28T12:24:36.572Z,5.55
2022-09-28T12:27:14.606Z,5.17
2022-09-28T12:29:51.313Z,3.70
2022-09-28T12:32:29.512Z,4.05
2022-09-28T12:35:02.947Z,4.22
2022-09-28T12:37:42.888Z,4.53
2022-09-28T12:43:54.789Z,5.47
2022-09-28T12:46:38.667Z,3.60
2022-09-28T12:50:27.247Z,4.35
2022-09-28T12:52:10.797Z,3.52
2022-09-28T12:54:58.070Z,4.92
2022-09-28T12:57:41.123Z,5.83
2022-09-28T13:00:17.354Z,4.28
2022-09-28T13:03:08.446Z,3.72
2022-09-28T13:09:31.423Z,5.45
2022-09-28T13:12:14.367Z,4.00
2022-09-28T13:15:27.582Z,4.70
2022-09-28T13:20:51.641Z,6.10
2022-09-28T13:23:28.049Z,3.55
2022-09-28T13:26:04.589Z,4.70
2022-09-28T13:28:41.947Z,3.37
2022-09-28T13:31:16.711Z,5.55
2022-09-28T13:33:51.226Z,3.35
2022-09-28T13:36:47.840Z,3.17
2022-09-28T13:39:38.681Z,4.35
2022-09-28T13:42:13.660Z,4.87
2022-09-28T13:48:08.815Z,4.35
2022-09-28T13:51:17.352Z,3.85
2022-09-28T13:57:14.316Z,3.22
2022-09-28T13:59:53.958Z,3.02
2022-09-28T14:02:32.770Z,2.72
2022-09-28T14:05:10.261Z,3.02
2022-09-28T14:08:01.926Z,4.42
2022-09-28T14:11:22.809Z,3.70
2022-09-28T14:14:03.557Z,3.55
2022-09-28T14:16:40.148Z,3.22
2022-09-28T14:19:16.012Z,3.60
2022-09-28T14:22:06.843Z,3.27
2022-09-28T14:24:59.317Z,3.58
2022-09-28T14:31:32.279Z,3.05
2022-09-28T14:34:07.631Z,3.67
2022-09-28T14:37:01.102Z,3.87
2022-09-28T14:39:57.151Z,4.33
2022-09-28T14:42:30.546Z,3.22
2022-09-28T14:45:29.800Z,4.03
2022-09-28T14:48:23.111Z,4.10
2022-09-28T14:50:57.390Z,4.47
2022-09-28T14:53:33.317Z,3.77
2022-09-28T14:56:09.306Z,5.10
2022-09-28T14:58:43.583Z,3.60
2022-09-28T15:01:20.281Z,4.55
2022-09-28T15:03:56.634Z,4.58
2022-09-28T15:06:30.909Z,5.65
2022-09-28T15:09:06.096Z,4.62
2022-09-28T15:11:43.161Z,4.15
2022-09-28T15:14:16.829Z,4.00
2022-09-28T15:16:50.149Z,4.25
2022-09-28T15:22:16.888Z,3.90
2022-09-28T15:25:02.047Z,3.92
2022-09-28T15:27:38.418Z,5.53
2022-09-28T15:33:45.013Z,4.75
2022-09-28T15:36:21.991Z,5.42
2022-09-28T15:39:01.998Z,7.15
2022-09-28T15:41:35.921Z,5.55
2022-09-28T15:44:29.765Z,8.40
2022-09-28T15:47:13.719Z,5.78
2022-09-28T15:49:50.830Z,6.10
2022-09-28T15:52:38.485Z,6.50
2022-09-28T15:55:23.201Z,9.35
2022-09-28T15:58:18.461Z,7.45
2022-09-28T16:00:54.720Z,6.85
2022-09-28T16:03:31.328Z,7.40
2022-09-28T16:06:12.138Z,9.78
2022-09-28T16:08:48.363Z,7.97
2022-09-28T16:11:26.484Z,7.17
2022-09-28T16:14:08.568Z,7.42
2022-09-28T16:16:47.030Z,9.28
2022-09-28T16:22:07.556Z,6.42
2022-09-28T16:24:41.932Z,10.25
2022-09-28T16:27:28.811Z,8.35
2022-09-28T16:30:19.070Z,8.98
2022-09-28T16:32:58.334Z,9.33
2022-09-28T16:35:33.524Z,9.35
2022-09-28T16:38:12.866Z,9.70
2022-09-28T16:40:48.226Z,6.70
2022-09-28T16:43:26.817Z,8.00
2022-09-28T16:46:02.707Z,5.42
2022-09-28T16:48:39.686Z,5.87
2022-09-28T16:51:12.908Z,10.23
2022-09-28T16:54:05.820Z,6.15
2022-09-28T16:56:42.994Z,8.40
2022-09-28T16:59:30.946Z,5.78
2022-09-28T17:02:14.758Z,5.90
2022-09-28T17:04:47.826Z,6.05
2022-09-28T17:07:22.270Z,6.55
2022-09-28T17:09:56.336Z,5.58
2022-09-28T17:12:34.299Z,4.97
2022-09-28T17:17:39.279Z,9.55
2022-09-28T17:20:22.968Z,7.67
2022-09-28T17:23:03.768Z,7.95
2022-09-28T17:25:37.595Z,8.60
2022-09-28T17:28:15.744Z,7.85
2022-09-28T17:30:50.868Z,7.80
2022-09-28T17:33:28.277Z,9.58
2022-09-28T17:36:05.224Z,7.60
2022-09-28T17:38:42.062Z,8.45
2022-09-28T17:41:20.397Z,9.65
2022-09-28T17:43:52.080Z,7.78
2022-09-28T17:46:29.927Z,7.62
2022-09-28T17:51:38.468Z,7.15
2022-09-28T17:54:13.114Z,11.10
2022-09-28T17:56:46.313Z,11.10
2022-09-28T17:59:22.214Z,7.20
2022-09-28T18:01:57.517Z,8.78
2022-09-28T18:04:50.671Z,15.05
2022-09-28T18:07:08.423Z,8.98
2022-09-28T18:09:41.649Z,7.90
2022-09-28T18:12:14.682Z,6.95
2022-09-28T18:14:49.998Z,7.30
2022-09-28T18:17:24.518Z,7.65
2022-09-28T18:19:57.643Z,9.83
2022-09-28T18:22:30.595Z,7.17
2022-09-28T18:25:06.264Z,6.03
2022-09-28T18:27:44.207Z,7.33
2022-09-28T18:30:17.144Z,6.08
2022-09-28T18:32:50.224Z,10.95
2022-09-28T18:35:26.212Z,6.80
2022-09-28T18:37:59.179Z,7.20
2022-09-28T18:40:33.009Z,7.95
2022-09-28T18:43:07.717Z,8.80
2022-09-28T18:45:42.333Z,10.10
2022-09-28T18:48:15.115Z,9.23
2022-09-28T18:50:48.159Z,10.45
2022-09-28T18:53:23.858Z,10.82
2022-09-28T18:55:58.939Z,10.95
2022-09-28T18:58:33.334Z,9.60
2022-09-28T19:01:31.520Z,7.70
2022-09-28T19:03:46.898Z,9.38
2022-09-28T19:06:20.105Z,9.43
2022-09-28T19:08:56.369Z,12.47
2022-09-28T19:11:29.806Z,8.43
2022-09-28T19:14:03.829Z,9.83
2022-09-28T19:16:41.956Z,11.63
2022-09-28T19:19:16.663Z,8.10
2022-09-28T19:21:50.325Z,10.65
2022-09-28T19:24:23.474Z,10.30
2022-09-28T19:26:56.737Z,9.70
2022-09-28T19:29:29.920Z,6.80
2022-09-28T19:32:03.119Z,7.17
2022-09-28T19:34:36.105Z,9.48
2022-09-28T19:37:10.953Z,8.58
2022-09-28T19:39:46.127Z,7.05
2022-09-28T19:42:19.142Z,10.60
2022-09-28T19:44:52.522Z,8.95
2022-09-28T19:47:25.693Z,8.63
2022-09-28T19:49:58.613Z,8.88
2022-09-28T19:52:31.762Z,10.65
2022-09-28T19:55:04.894Z,8.85
2022-09-28T19:57:37.853Z,10.80
2022-09-28T20:00:13.507Z,9.20
2022-09-28T20:02:46.509Z,8.10
2022-09-28T20:05:19.519Z,9.33
2022-09-28T20:07:52.469Z,9.08
2022-09-28T20:10:25.365Z,10.75
2022-09-28T20:12:59.104Z,11.12
2022-09-28T20:15:32.199Z,10.55
2022-09-28T20:18:05.328Z,12.03
2022-09-28T20:20:38.265Z,11.55
2022-09-28T20:23:11.802Z,12.40
2022-09-28T20:25:44.735Z,9.65
2022-09-28T20:28:17.723Z,10.72
2022-09-28T20:30:50.636Z,9.78
2022-09-28T20:33:28.924Z,12.07
2022-09-28T20:35:59.460Z,9.88
2022-09-28T20:38:32.495Z,10.63
2022-09-28T20:41:06.231Z,7.78
2022-09-28T20:43:40.525Z,9.13
2022-09-28T20:46:14.636Z,10.75
2022-09-28T20:48:49.479Z,12.63
2022-09-28T20:51:23.333Z,11.08
2022-09-28T20:53:57.712Z,9.65
2022-09-28T20:56:33.812Z,9.45
2022-09-28T20:59:08.595Z,9.43
2022-09-28T21:01:42.090Z,9.80
2022-09-28T21:04:15.592Z,11.57
2022-09-28T21:06:48.911Z,10.50
2022-09-28T21:09:21.950Z,8.98
2022-09-28T21:11:55.196Z,9.00
2022-09-28T21:14:29.881Z,9.50
2022-09-28T21:17:02.736Z,9.40
2022-09-28T21:19:35.709Z,8.78
2022-09-28T21:22:08.722Z,11.38
2022-09-28T21:24:41.779Z,8.83
2022-09-28T21:27:14.742Z,8.50
2022-09-28T21:29:47.712Z,8.30
2022-09-28T21:32:24.279Z,8.70
2022-09-28T21:34:58.423Z,8.88
2022-09-28T21:37:31.348Z,8.53
2022-09-28T21:40:06.616Z,8.40
2022-09-28T21:42:40.700Z,9.65
2022-09-28T21:45:13.780Z,10.48
2022-09-28T21:47:50.093Z,8.68
2022-09-28T21:50:25.903Z,9.03
2022-09-28T21:53:06.448Z,8.65
2022-09-28T21:55:40.177Z,7.78
2022-09-28T21:58:13.130Z,8.88
2022-09-28T22:00:46.047Z,8.55
2022-09-28T22:03:18.867Z,8.38
2022-09-28T22:05:53.879Z,8.08
2022-09-28T22:08:26.918Z,8.80
2022-09-28T22:11:05.861Z,7.55
2022-09-28T22:13:41.468Z,7.67
2022-09-28T22:16:15.633Z,9.55
2022-09-28T22:18:49.138Z,8.65
2022-09-28T22:21:23.972Z,11.63
2022-09-28T22:24:01.987Z,8.38
2022-09-28T22:26:37.224Z,13.32
2022-09-28T22:29:11.485Z,9.33
2022-09-28T22:31:44.352Z,7.15
2022-09-28T22:34:17.304Z,8.50
2022-09-28T22:36:50.206Z,8.20
2022-09-28T22:39:23.014Z,8.70
2022-09-28T22:41:55.869Z,9.28
2022-09-28T22:44:28.777Z,7.47
2022-09-28T22:47:02.191Z,7.22
2022-09-28T22:49:35.310Z,7.05
2022-09-28T22:52:08.897Z,8.65
2022-09-28T22:54:41.703Z,7.28
2022-09-28T22:57:17.309Z,6.85
2022-09-28T22:59:50.129Z,7.55
2022-09-28T23:02:23.060Z,8.35
2022-09-28T23:04:55.945Z,8.80
2022-09-28T23:07:28.765Z,7.50
2022-09-28T23:10:01.591Z,7.62
2022-09-28T23:12:47.899Z,9.20
2022-09-28T23:15:31.733Z,9.10
2022-09-28T23:18:10.653Z,6.72
2022-09-28T23:20:45.011Z,8.28
2022-09-28T23:23:18.003Z,7.80
2022-09-28T23:25:51.250Z,9.25
2022-09-28T23:28:26.315Z,8.58
2022-09-28T23:31:02.103Z,8.98
2022-09-28T23:33:34.977Z,8.63
2022-09-28T23:36:09.399Z,7.10
2022-09-28T23:38:42.199Z,11.70
2022-09-28T23:41:15.065Z,8.38
2022-09-28T23:43:47.944Z,10.80
2022-09-28T23:46:21.427Z,9.08
2022-09-28T23:48:54.828Z,8.68
2022-09-28T23:51:27.728Z,7.58
2022-09-28T23:54:02.295Z,8.70
2022-09-28T23:56:35.516Z,15.03
2022-09-28T23:59:08.449Z,7.42
